createdAt,value
2022-08-25T00:04:11.382Z,52.80
2022-08-25T00:09:20.143Z,53.00
2022-08-25T00:14:26.722Z,53.40
2022-08-25T00:19:33.304Z,53.50
2022-08-25T00:24:38.505Z,53.90
2022-08-25T00:29:40.839Z,53.60
2022-08-25T00:34:43.227Z,53.80
2022-08-25T00:39:47.153Z,53.70
2022-08-25T00:44:50.040Z,53.90
2022-08-25T00:49:56.282Z,53.70
2022-08-25T00:55:08.075Z,54.10
2022-08-25T01:00:16.718Z,54.20
2022-08-25T01:05:19.603Z,54.70
2022-08-25T01:10:24.559Z,54.60
2022-08-25T01:15:28.191Z,54.80
2022-08-25T01:20:32.427Z,54.80
2022-08-25T01:25:46.065Z,54.90
2022-08-25T01:30:49.163Z,55.60
2022-08-25T01:35:51.575Z,55.20
2022-08-25T01:40:55.433Z,55.30
2022-08-25T01:45:57.829Z,55.40
2022-08-25T01:51:00.662Z,55.50
2022-08-25T01:56:11.844Z,55.60
2022-08-25T02:01:16.699Z,56.20
2022-08-25T02:06:28.769Z,55.90
2022-08-25T02:11:35.788Z,56.20
2022-08-25T02:16:41.473Z,56.20
2022-08-25T02:21:44.628Z,56.30
2022-08-25T02:26:48.744Z,56.20
2022-08-25T02:31:51.071Z,56.60
2022-08-25T02:36:53.437Z,56.60
2022-08-25T02:41:57.237Z,56.80
2022-08-25T02:46:59.781Z,57.00
2022-08-25T02:52:02.292Z,56.90
2022-08-25T02:57:07.765Z,57.10
2022-08-25T03:02:10.131Z,57.30
2022-08-25T03:07:12.376Z,57.10
2022-08-25T03:12:16.471Z,57.10
2022-08-25T03:17:18.791Z,57.30
2022-08-25T03:22:21.100Z,57.20
2022-08-25T03:27:25.211Z,57.20
2022-08-25T03:32:27.617Z,57.50
2022-08-25T03:37:30.028Z,57.40
2022-08-25T03:42:33.827Z,57.40
2022-08-25T03:47:36.154Z,57.50
2022-08-25T03:52:42.390Z,57.50
2022-08-25T03:57:46.761Z,57.60
2022-08-25T04:02:49.367Z,57.90
2022-08-25T04:07:51.762Z,58.20
2022-08-25T04:12:55.609Z,58.50
2022-08-25T04:17:58.253Z,58.90
2022-08-25T04:23:00.554Z,59.30
2022-08-25T04:28:04.608Z,60.10
2022-08-25T04:33:07.193Z,60.30
2022-08-25T04:38:09.555Z,61.20
2022-08-25T04:43:13.341Z,60.50
2022-08-25T04:48:15.601Z,60.80
2022-08-25T04:53:18.905Z,61.60
2022-08-25T04:58:22.767Z,62.20
2022-08-25T05:03:25.124Z,61.90
2022-08-25T05:08:28.021Z,61.70
2022-08-25T05:13:31.884Z,61.50
2022-08-25T05:18:35.091Z,61.10
2022-08-25T05:23:38.383Z,60.50
2022-08-25T05:28:42.775Z,59.90
2022-08-25T05:33:45.723Z,59.10
2022-08-25T05:38:48.196Z,58.40
2022-08-25T05:43:52.080Z,57.80
2022-08-25T05:48:54.922Z,57.20
2022-08-25T05:53:57.199Z,56.30
2022-08-25T05:59:00.972Z,55.80
2022-08-25T06:04:03.784Z,55.30
2022-08-25T06:09:06.387Z,55.30
2022-08-25T06:14:11.698Z,55.60
2022-08-25T06:19:14.351Z,55.30
2022-08-25T06:24:16.652Z,55.20
2022-08-25T06:29:21.099Z,55.00
2022-08-25T06:34:24.290Z,54.80
2022-08-25T06:39:26.825Z,54.90
2022-08-25T06:44:30.591Z,55.50
2022-08-25T06:49:36.044Z,54.80
2022-08-25T06:54:39.082Z,54.50
2022-08-25T06:59:42.851Z,54.40
2022-08-25T07:04:45.329Z,54.40
2022-08-25T07:09:47.684Z,53.90
2022-08-25T07:15:10.061Z,53.70
2022-08-25T07:20:14.514Z,53.30
2022-08-25T07:25:18.044Z,53.40
2022-08-25T07:30:22.195Z,53.70
2022-08-25T07:35:26.279Z,53.80
2022-08-25T07:40:31.199Z,52.70
2022-08-25T07:45:37.900Z,52.80
2022-08-25T07:50:52.620Z,52.10
2022-08-25T07:55:55.145Z,51.60
2022-08-25T08:00:59.107Z,52.40
2022-08-25T08:06:01.571Z,51.90
2022-08-25T08:11:05.281Z,51.70
2022-08-25T08:16:11.337Z,51.20
2022-08-25T08:21:19.157Z,50.90
2022-08-25T08:26:31.709Z,51.30
2022-08-25T08:31:48.349Z,50.90
2022-08-25T08:36:51.509Z,50.80
2022-08-25T08:42:11.434Z,50.70
2022-08-25T08:47:28.840Z,50.20
2022-08-25T08:52:40.741Z,49.50
2022-08-25T09:03:04.876Z,48.90
2022-08-25T09:08:12.267Z,49.70
2022-08-25T09:13:26.284Z,48.80
2022-08-25T09:18:41.227Z,48.80
2022-08-25T09:24:18.067Z,49.60
2022-08-25T09:29:25.443Z,48.40
2022-08-25T09:34:34.461Z,48.70
2022-08-25T09:39:36.827Z,47.70
2022-08-25T09:44:42.508Z,47.60
2022-08-25T09:49:48.829Z,46.60
2022-08-25T09:54:52.907Z,46.60
2022-08-25T09:59:57.628Z,46.90
2022-08-25T10:05:19.426Z,46.80
2022-08-25T10:10:28.907Z,44.90
2022-08-25T10:15:37.780Z,44.80
2022-08-25T10:20:44.801Z,45.60
2022-08-25T10:25:57.835Z,45.50
2022-08-25T10:31:13.124Z,45.10
2022-08-25T10:36:21.647Z,44.10
2022-08-25T10:41:51.247Z,44.10
2022-08-25T10:47:06.170Z,44.20
2022-08-25T10:52:16.496Z,43.50
2022-08-25T10:57:28.614Z,43.40
2022-08-25T11:02:48.759Z,43.40
2022-08-25T11:07:58.908Z,42.70
2022-08-25T11:13:07.962Z,43.30
2022-08-25T11:18:15.219Z,43.20
2022-08-25T11:23:25.616Z,42.50
2022-08-25T11:28:35.981Z,41.70
2022-08-25T11:33:38.669Z,42.70
2022-08-25T11:38:57.649Z,42.60
2022-08-25T11:44:33.529Z,41.60
2022-08-25T11:49:52.934Z,41.90
2022-08-25T11:54:56.840Z,40.60
2022-08-25T12:00:10.807Z,41.60
2022-08-25T12:05:52.353Z,42.40
2022-08-25T12:10:59.608Z,42.30
2022-08-25T12:16:02.544Z,42.00
2022-08-25T12:21:16.623Z,41.70
2022-08-25T12:26:32.266Z,40.70
2022-08-25T12:32:04.900Z,41.20
2022-08-25T12:37:14.508Z,42.20
2022-08-25T12:42:29.259Z,42.80
2022-08-25T12:47:31.889Z,43.50
2022-08-25T12:52:38.216Z,43.80
2022-08-25T12:57:45.786Z,44.30
2022-08-25T13:03:23.662Z,44.60
2022-08-25T13:09:10.547Z,45.00
2022-08-25T13:14:18.834Z,46.20
2022-08-25T13:19:21.940Z,44.60
2022-08-25T13:24:27.219Z,44.80
2022-08-25T13:29:33.270Z,45.40
2022-08-25T13:34:42.513Z,45.40
2022-08-25T13:39:56.225Z,44.80
2022-08-25T13:45:02.635Z,45.40
2022-08-25T13:50:18.387Z,44.90
2022-08-25T13:55:27.402Z,45.40
2022-08-25T14:00:34.829Z,44.00
2022-08-25T14:05:40.406Z,44.10
2022-08-25T14:10:45.970Z,44.10
2022-08-25T14:15:50.019Z,43.90
2022-08-25T14:20:54.786Z,43.80
2022-08-25T14:25:58.191Z,44.10
2022-08-25T14:31:05.603Z,44.70
2022-08-25T14:36:09.234Z,44.40
2022-08-25T14:41:11.721Z,43.90
2022-08-25T14:46:19.727Z,44.00
2022-08-25T14:51:23.248Z,43.70
2022-08-25T14:56:27.686Z,44.30
2022-08-25T15:01:33.462Z,43.70
2022-08-25T15:06:37.328Z,43.80
2022-08-25T15:11:42.877Z,44.00
2022-08-25T15:16:49.587Z,43.20
2022-08-25T15:21:52.158Z,43.30
2022-08-25T15:26:57.198Z,42.80
2022-08-25T15:32:03.828Z,43.40
2022-08-25T15:37:09.590Z,44.20
2022-08-25T15:42:12.928Z,43.80
2022-08-25T15:47:16.835Z,44.30
2022-08-25T15:52:19.546Z,44.00
2022-08-25T15:57:24.300Z,44.30
2022-08-25T16:02:28.783Z,44.10
2022-08-25T16:07:31.197Z,44.20
2022-08-25T16:12:33.626Z,44.90
2022-08-25T16:17:37.524Z,44.70
2022-08-25T16:22:46.099Z,45.20
2022-08-25T16:27:58.463Z,45.00
2022-08-25T16:33:07.826Z,45.30
2022-08-25T16:38:29.483Z,46.40
2022-08-25T16:43:55.044Z,46.30
2022-08-25T16:49:08.175Z,46.60
2022-08-25T16:54:21.977Z,46.90
2022-08-25T16:59:32.144Z,47.60
2022-08-25T17:04:44.942Z,48.10
2022-08-25T17:09:52.192Z,48.00
2022-08-25T17:15:02.880Z,48.00
2022-08-25T17:20:31.971Z,48.30
2022-08-25T17:25:41.282Z,48.90
2022-08-25T17:30:49.651Z,49.00
2022-08-25T17:35:56.303Z,49.40
2022-08-25T17:41:01.343Z,49.90
2022-08-25T17:46:04.525Z,49.70
2022-08-25T17:51:09.544Z,50.00
2022-08-25T17:56:14.450Z,50.50
2022-08-25T18:01:20.038Z,50.40
2022-08-25T18:06:39.884Z,50.60
2022-08-25T18:11:55.780Z,51.10
2022-08-25T18:17:00.346Z,51.90
2022-08-25T18:22:04.244Z,51.10
2022-08-25T18:27:06.676Z,51.20
2022-08-25T18:32:27.905Z,51.40
2022-08-25T18:37:33.337Z,51.50
2022-08-25T18:42:36.329Z,52.70
2022-08-25T18:47:38.735Z,53.10
2022-08-25T18:52:42.546Z,53.90
2022-08-25T18:57:46.057Z,54.20
2022-08-25T19:02:49.229Z,54.10
2022-08-25T19:07:53.495Z,54.20
2022-08-25T19:12:56.892Z,54.80
2022-08-25T19:17:59.896Z,54.90
2022-08-25T19:23:03.735Z,55.50
2022-08-25T19:28:12.246Z,56.10
2022-08-25T19:33:14.784Z,57.50
2022-08-25T19:38:38.955Z,57.50
2022-08-25T19:43:55.522Z,57.40
2022-08-25T19:49:01.571Z,57.60
2022-08-25T19:54:11.097Z,57.70
2022-08-25T19:59:14.143Z,57.90
2022-08-25T20:04:17.304Z,57.80
2022-08-25T20:09:39.278Z,58.20
2022-08-25T20:14:43.649Z,58.30
2022-08-25T20:19:46.212Z,58.40
2022-08-25T20:24:51.075Z,58.40
2022-08-25T20:29:58.709Z,58.50
2022-08-25T20:35:01.911Z,58.40
2022-08-25T20:40:08.532Z,58.70
2022-08-25T20:45:14.089Z,59.00
2022-08-25T20:50:16.980Z,59.00
2022-08-25T20:55:21.619Z,59.00
2022-08-25T21:00:24.969Z,59.50
2022-08-25T21:05:27.548Z,59.80
2022-08-25T21:10:31.525Z,59.90
2022-08-25T21:15:34.024Z,59.70
2022-08-25T21:20:36.660Z,59.70
2022-08-25T21:25:42.550Z,60.60
2022-08-25T21:30:47.434Z,61.20
2022-08-25T21:35:50.319Z,61.20
2022-08-25T21:40:54.630Z,60.80
2022-08-25T21:45:57.082Z,61.30
2022-08-25T21:51:06.771Z,61.50
2022-08-25T21:56:16.935Z,61.70
2022-08-25T22:01:20.893Z,61.40
2022-08-25T22:06:25.104Z,61.90
2022-08-25T22:11:29.162Z,61.60
2022-08-25T22:16:39.862Z,61.60
2022-08-25T22:21:44.023Z,61.50
2022-08-25T22:26:48.580Z,61.90
2022-08-25T22:31:52.930Z,62.00
2022-08-25T22:36:59.696Z,61.80
2022-08-25T22:42:04.647Z,62.00
2022-08-25T22:47:07.991Z,62.20
2022-08-25T22:52:12.743Z,62.30
2022-08-25T22:57:17.368Z,62.60
2022-08-25T23:02:21.226Z,62.60
2022-08-25T23:07:23.663Z,62.60
2022-08-25T23:12:27.578Z,62.60
2022-08-25T23:17:29.992Z,62.80
2022-08-25T23:22:32.327Z,62.50
2022-08-25T23:27:36.821Z,62.40
2022-08-25T23:32:39.205Z,62.50
2022-08-25T23:37:42.051Z,62.30
2022-08-25T23:42:47.608Z,62.50
2022-08-25T23:47:50.067Z,62.60
2022-08-25T23:52:52.455Z,62.40
2022-08-25T23:57:56.188Z,62.50
